Koun Maru — JK5556 — position and weather

sailwx.info

Track history (hours):
 
Tides and Currents Weather Stations Pressure Air Temp Water Temp Dewpoint Dewpoint Depression Visibility Wind Speed Wind Dir Waves Ship Positions

Koun Maru

Last reported at 2014-Oct-30 11:28 UTC. Time now 2014-Oct-30 15:15 UTC.
Position N 34°39' E 135°25'.

Length 40 m.

Type: Tanker. MMSI: 431401871.

Date/timePositionNaut miles runAvg speedWind from/ knotsBaromVisibWave heightAir tempDewpointWater temp
2014-Oct-30 11:28N 34°39' E 135°25'1010.4
2014-Oct-30 10:33N 34°37' E 135°14'30 1.2
2014-Oct-29 09:04N 34°07' E 135°07'30 1.3
2014-Oct-28 09:32N 34°38' E 135°08'7 7.6
2014-Oct-28 08:33N 34°42' E 135°15'0 0.0
2014-Oct-28 07:28N 34°42' E 135°15'0 0.0
2014-Oct-28 06:32N 34°42' E 135°15'0 0.0
2014-Oct-28 05:33N 34°42' E 135°15'0 0.0
2014-Oct-28 04:30N 34°42' E 135°15'0 0.2
2014-Oct-28 03:31N 34°42' E 135°15'0 0.0
2014-Oct-28 02:30N 34°42' E 135°15'0 0.1
2014-Oct-28 01:33N 34°42' E 135°15'0 0.0
2014-Oct-28 00:31N 34°42' E 135°15'3 2.9
2014-Oct-27 23:33N 34°40' E 135°13'0 0.0
2014-Oct-27 22:31N 34°40' E 135°13'1 1.2
2014-Oct-27 21:33N 34°41' E 135°12'8 7.6
2014-Oct-27 20:33N 34°40' E 135°22'5 0.2
2014-Oct-27 01:32N 34°36' E 135°24'1 0.4
2014-Oct-26 23:21N 34°36' E 135°25'3 0.2
2014-Oct-26 11:19N 34°39' E 135°26'810.7
2014-Oct-26 10:32N 34°37' E 135°16'1111.1
2014-Oct-26 09:33N 34°36' E 135°03'  
2014-Oct-22 01:32N 34°14' E 135°07'1 0.3
2014-Oct-21 22:21N 34°14' E 135°08'1 1.2
2014-Oct-21 21:29N 34°14' E 135°06'0 0.0
2014-Oct-21 19:32N 34°15' E 135°06'0 0.0
2014-Oct-21 18:28N 34°15' E 135°06'0 0.0
2014-Oct-21 17:29N 34°15' E 135°06'0 0.0
2014-Oct-21 16:28N 34°15' E 135°06'0 0.0
2014-Oct-21 15:28N 34°15' E 135°06'0 0.0
2014-Oct-21 14:21N 34°15' E 135°06'0 0.0
2014-Oct-21 13:30N 34°15' E 135°06'0 0.0
2014-Oct-21 12:32N 34°15' E 135°06'0 0.0
2014-Oct-21 11:32N 34°15' E 135°06'0 0.0
2014-Oct-21 09:33N 34°15' E 135°06'0 0.0
2014-Oct-21 08:06N 34°15' E 135°06'0 0.0
2014-Oct-21 07:31N 34°15' E 135°06'0 0.1
2014-Oct-21 06:33N 34°15' E 135°06'0 0.0
2014-Oct-21 05:27N 34°14' E 135°06'27 4.5
2014-Oct-20 23:21N 34°37' E 135°25'  
Track history (hours):
 
Tides and Currents Weather Stations Pressure Air Temp Water Temp Dewpoint Dewpoint Depression Visibility Wind Speed Wind Dir Waves Ship Positions

Koun Maru

Last reported at 2014-Oct-30 11:28 UTC. Time now 2014-Oct-30 15:15 UTC.
Position N 34°39' E 135°25'.

Length 40 m.

Type: Tanker. MMSI: 431401871.

Date/timePositionNaut miles runAvg speedWind from/ knotsBaromVisibWave heightAir tempDewpointWater temp
2014-Oct-30 11:28N 34°39' E 135°25'1010.4
2014-Oct-30 10:33N 34°37' E 135°14'30 1.2
2014-Oct-29 09:04N 34°07' E 135°07'30 1.3
2014-Oct-28 09:32N 34°38' E 135°08'7 7.6
2014-Oct-28 08:33N 34°42' E 135°15'0 0.0
2014-Oct-28 07:28N 34°42' E 135°15'0 0.0
2014-Oct-28 06:32N 34°42' E 135°15'0 0.0
2014-Oct-28 05:33N 34°42' E 135°15'0 0.0
2014-Oct-28 04:30N 34°42' E 135°15'0 0.2
2014-Oct-28 03:31N 34°42' E 135°15'0 0.0
2014-Oct-28 02:30N 34°42' E 135°15'0 0.1
2014-Oct-28 01:33N 34°42' E 135°15'0 0.0
2014-Oct-28 00:31N 34°42' E 135°15'3 2.9
2014-Oct-27 23:33N 34°40' E 135°13'0 0.0
2014-Oct-27 22:31N 34°40' E 135°13'1 1.2
2014-Oct-27 21:33N 34°41' E 135°12'8 7.6
2014-Oct-27 20:33N 34°40' E 135°22'5 0.2
2014-Oct-27 01:32N 34°36' E 135°24'1 0.4
2014-Oct-26 23:21N 34°36' E 135°25'3 0.2
2014-Oct-26 11:19N 34°39' E 135°26'810.7
2014-Oct-26 10:32N 34°37' E 135°16'1111.1
2014-Oct-26 09:33N 34°36' E 135°03'  
2014-Oct-22 01:32N 34°14' E 135°07'1 0.3
2014-Oct-21 22:21N 34°14' E 135°08'1 1.2
2014-Oct-21 21:29N 34°14' E 135°06'0 0.0
2014-Oct-21 19:32N 34°15' E 135°06'0 0.0
2014-Oct-21 18:28N 34°15' E 135°06'0 0.0
2014-Oct-21 17:29N 34°15' E 135°06'0 0.0
2014-Oct-21 16:28N 34°15' E 135°06'0 0.0
2014-Oct-21 15:28N 34°15' E 135°06'0 0.0
2014-Oct-21 14:21N 34°15' E 135°06'0 0.0
2014-Oct-21 13:30N 34°15' E 135°06'0 0.0
2014-Oct-21 12:32N 34°15' E 135°06'0 0.0
2014-Oct-21 11:32N 34°15' E 135°06'0 0.0
2014-Oct-21 09:33N 34°15' E 135°06'0 0.0
2014-Oct-21 08:06N 34°15' E 135°06'0 0.0
2014-Oct-21 07:31N 34°15' E 135°06'0 0.1
2014-Oct-21 06:33N 34°15' E 135°06'0 0.0
2014-Oct-21 05:27N 34°14' E 135°06'27 4.5
2014-Oct-20 23:21N 34°37' E 135°25'  

Dump ship's entire track history